createdAt,value
2022-11-05T00:02:22.352Z,97768.28
2022-11-05T00:05:06.727Z,97770.88
2022-11-05T00:07:58.166Z,97768.41
2022-11-05T00:10:35.919Z,97773.28
2022-11-05T00:13:20.652Z,97777.16
2022-11-05T00:16:04.934Z,97786.78
2022-11-05T00:18:30.670Z,97785.31
2022-11-05T00:20:56.592Z,97788.94
2022-11-05T00:23:41.278Z,97795.84
2022-11-05T00:26:09.115Z,97791.09
2022-11-05T00:28:35.168Z,97791.72
2022-11-05T00:31:03.772Z,97791.50
2022-11-05T00:33:30.046Z,97795.34
2022-11-05T00:35:55.752Z,97795.72
2022-11-05T00:38:21.422Z,97793.66
2022-11-05T00:40:47.235Z,97791.59
2022-11-05T00:43:32.050Z,97792.19
2022-11-05T00:45:57.751Z,97796.09
2022-11-05T00:48:42.222Z,97802.22
2022-11-05T00:51:08.218Z,97801.19
2022-11-05T00:53:34.161Z,97797.50
2022-11-05T00:56:00.481Z,97808.97
2022-11-05T00:58:29.252Z,97814.28
2022-11-05T01:00:57.432Z,97811.25
2022-11-05T01:03:35.322Z,97813.53
2022-11-05T01:06:13.057Z,97816.41
2022-11-05T01:08:39.935Z,97814.34
2022-11-05T01:11:09.896Z,97818.03
2022-11-05T01:13:36.043Z,97820.69
2022-11-05T01:16:07.420Z,97817.22
2022-11-05T01:18:33.244Z,97821.50
2022-11-05T01:20:59.048Z,97829.69
2022-11-05T01:23:24.806Z,97830.94
2022-11-05T01:25:50.495Z,97837.94
2022-11-05T01:28:16.270Z,97835.28
2022-11-05T01:30:42.116Z,97836.31
2022-11-05T01:33:07.946Z,97841.84
2022-11-05T01:35:33.835Z,97835.50
2022-11-05T01:37:59.526Z,97841.25
2022-11-05T01:40:25.692Z,97838.38
2022-11-05T01:42:51.431Z,97837.94
2022-11-05T01:45:25.745Z,97842.84
2022-11-05T01:47:59.451Z,97848.75
2022-11-05T01:50:33.730Z,97856.13
2022-11-05T01:53:22.228Z,97856.13
2022-11-05T01:56:01.780Z,97870.47
2022-11-05T01:58:33.343Z,97872.75
2022-11-05T02:00:59.118Z,97872.94
2022-11-05T02:03:25.973Z,97870.69
2022-11-05T02:05:54.311Z,97867.44
2022-11-05T02:08:58.887Z,97869.66
2022-11-05T02:11:24.655Z,97875.19
2022-11-05T02:13:50.367Z,97872.69
2022-11-05T02:16:26.893Z,97877.38
2022-11-05T02:19:10.655Z,97883.88
2022-11-05T02:21:55.251Z,97879.34
2022-11-05T02:24:39.817Z,97886.47
2022-11-05T02:27:20.015Z,97889.75
2022-11-05T02:30:04.125Z,97882.34
2022-11-05T02:32:59.806Z,97886.44
2022-11-05T02:35:39.919Z,97884.81
2022-11-05T02:38:15.975Z,97890.34
2022-11-05T02:40:44.584Z,97887.88
2022-11-05T02:43:35.007Z,97892.41
2022-11-05T02:46:15.608Z,97893.88
2022-11-05T02:48:49.672Z,97898.38
2022-11-05T02:51:36.454Z,97903.25
2022-11-05T02:54:08.436Z,97893.44
2022-11-05T02:56:44.342Z,97899.78
2022-11-05T02:59:10.060Z,97900.59
2022-11-05T03:01:37.232Z,97896.31
2022-11-05T03:04:07.382Z,97906.34
2022-11-05T03:06:47.858Z,97901.47
2022-11-05T03:09:16.574Z,97893.50
2022-11-05T03:12:20.773Z,97897.56
2022-11-05T03:14:58.613Z,97897.56
2022-11-05T03:17:37.320Z,97891.47
2022-11-05T03:20:09.395Z,97895.00
2022-11-05T03:22:40.691Z,97898.09
2022-11-05T03:25:14.141Z,97908.72
2022-11-05T03:27:45.252Z,97901.78
2022-11-05T03:30:13.262Z,97900.16
2022-11-05T03:32:43.470Z,97907.72
2022-11-05T03:35:17.696Z,97904.88
2022-11-05T03:37:47.643Z,97908.56
2022-11-05T03:40:17.494Z,97910.56
2022-11-05T03:42:47.777Z,97913.66
2022-11-05T03:45:18.816Z,97914.09
2022-11-05T03:47:47.161Z,97920.66
2022-11-05T03:50:28.202Z,97921.88
2022-11-05T03:53:00.166Z,97927.63
2022-11-05T03:55:35.814Z,97929.47
2022-11-05T03:58:04.264Z,97928.66
2022-11-05T04:00:30.082Z,97920.91
2022-11-05T04:02:55.897Z,97925.41
2022-11-05T04:05:21.675Z,97927.03
2022-11-05T04:08:09.975Z,97932.13
2022-11-05T04:11:04.274Z,97928.22
2022-11-05T04:13:30.726Z,97933.94
2022-11-05T04:16:15.266Z,97930.03
2022-11-05T04:18:41.618Z,97924.34
2022-11-05T04:21:27.888Z,97936.59
2022-11-05T04:24:09.559Z,97931.50
2022-11-05T04:26:45.253Z,97936.81
2022-11-05T04:29:29.891Z,97937.63
2022-11-05T04:31:55.863Z,97938.66
2022-11-05T04:34:21.673Z,97945.22
2022-11-05T04:36:51.724Z,97946.25
2022-11-05T04:39:18.521Z,97944.59
2022-11-05T04:41:47.190Z,97947.47
2022-11-05T04:44:14.620Z,97945.84
2022-11-05T04:46:41.440Z,97952.63
2022-11-05T04:49:07.126Z,97953.81
2022-11-05T04:51:32.790Z,97965.28
2022-11-05T04:53:58.654Z,97966.13
2022-11-05T04:56:25.032Z,97974.09
2022-11-05T04:58:51.357Z,97982.28
2022-11-05T05:01:19.861Z,97993.09
2022-11-05T05:03:47.658Z,98003.13
2022-11-05T05:06:13.349Z,98001.91
2022-11-05T05:08:39.076Z,98004.94
2022-11-05T05:11:07.473Z,98013.75
2022-11-05T05:13:33.883Z,98016.41
2022-11-05T05:16:05.313Z,98016.00
2022-11-05T05:18:31.121Z,98020.91
2022-11-05T05:21:16.543Z,98018.84
2022-11-05T05:23:42.224Z,98030.53
2022-11-05T05:26:07.921Z,98032.94
2022-11-05T05:28:33.931Z,98024.75
2022-11-05T05:30:59.996Z,98028.41
2022-11-05T05:33:26.993Z,98031.69
2022-11-05T05:35:52.863Z,98039.25
2022-11-05T05:38:18.544Z,98038.00
2022-11-05T05:40:44.433Z,98030.66
2022-11-05T05:43:10.473Z,98047.59
2022-11-05T05:45:36.391Z,98049.22
2022-11-05T05:48:03.146Z,98060.47
2022-11-05T05:50:28.945Z,98054.94
2022-11-05T05:52:54.622Z,98060.66
2022-11-05T05:55:20.675Z,98066.41
2022-11-05T05:57:46.618Z,98063.94
2022-11-05T06:00:12.771Z,98057.16
2022-11-05T06:02:39.092Z,98067.97
2022-11-05T06:05:04.963Z,98063.47
2022-11-05T06:07:35.968Z,98067.34
2022-11-05T06:10:03.120Z,98071.47
2022-11-05T06:12:29.416Z,98075.53
2022-11-05T06:14:55.094Z,98077.16
2022-11-05T06:17:20.884Z,98071.84
2022-11-05T06:19:47.119Z,98073.25
2022-11-05T06:22:12.809Z,98085.53
2022-11-05T06:24:38.626Z,98085.75
2022-11-05T06:27:04.700Z,98093.75
2022-11-05T06:29:30.408Z,98101.72
2022-11-05T06:31:56.102Z,98098.25
2022-11-05T06:34:21.764Z,98094.56
2022-11-05T06:36:47.585Z,98099.47
2022-11-05T06:39:13.293Z,98099.25
2022-11-05T06:42:03.883Z,98101.91
2022-11-05T06:44:24.737Z,98098.22
2022-11-05T06:46:50.516Z,98104.97
2022-11-05T06:49:16.179Z,98102.28
2022-11-05T06:51:42.182Z,98108.44
2022-11-05T06:54:08.289Z,98113.56
2022-11-05T06:56:33.981Z,98120.09
2022-11-05T06:58:59.726Z,98135.03
2022-11-05T07:01:25.501Z,98130.56
2022-11-05T07:03:51.262Z,98144.91
2022-11-05T07:06:16.921Z,98150.47
2022-11-05T07:08:42.676Z,98153.31
2022-11-05T07:11:08.354Z,98154.34
2022-11-05T07:13:34.024Z,98155.38
2022-11-05T07:15:59.730Z,98157.63
2022-11-05T07:18:25.633Z,98161.88
2022-11-05T07:20:51.316Z,98160.84
2022-11-05T07:23:17.022Z,98161.66
2022-11-05T07:25:43.274Z,98168.59
2022-11-05T07:28:09.952Z,98172.03
2022-11-05T07:30:36.051Z,98167.50
2022-11-05T07:33:02.844Z,98173.63
2022-11-05T07:35:28.658Z,98176.25
2022-11-05T07:37:55.032Z,98170.88
2022-11-05T07:40:22.858Z,98185.81
2022-11-05T07:42:53.620Z,98186.59
2022-11-05T07:45:19.509Z,98185.31
2022-11-05T07:47:47.212Z,98189.19
2022-11-05T07:50:14.635Z,98188.31
2022-11-05T07:52:40.670Z,98197.72
2022-11-05T07:55:06.959Z,98204.25
2022-11-05T07:57:40.259Z,98201.41
2022-11-05T08:00:06.894Z,98207.34
2022-11-05T08:02:32.688Z,98213.28
2022-11-05T08:04:58.565Z,98206.75
2022-11-05T08:07:24.271Z,98208.97
2022-11-05T08:09:49.958Z,98199.72
2022-11-05T08:12:15.725Z,98200.31
2022-11-05T08:14:41.456Z,98199.72
2022-11-05T08:17:07.141Z,98205.72
2022-11-05T08:19:32.842Z,98212.47
2022-11-05T08:21:58.521Z,98216.63
2022-11-05T08:24:26.785Z,98215.47
2022-11-05T08:26:53.017Z,98218.75
2022-11-05T08:29:18.741Z,98221.03
2022-11-05T08:31:44.544Z,98221.25
2022-11-05T08:34:10.254Z,98224.06
2022-11-05T08:36:35.997Z,98220.19
2022-11-05T08:39:01.806Z,98213.56
2022-11-05T08:41:27.630Z,98220.75
2022-11-05T08:43:56.682Z,98217.91
2022-11-05T08:46:22.358Z,98224.28
2022-11-05T08:48:48.302Z,98231.19
2022-11-05T08:51:14.063Z,98227.66
2022-11-05T08:53:39.755Z,98227.00
2022-11-05T08:56:05.565Z,98228.97
2022-11-05T08:58:32.186Z,98235.19
2022-11-05T09:01:03.435Z,98249.03
2022-11-05T09:03:30.519Z,98244.97
2022-11-05T09:05:56.223Z,98251.72
2022-11-05T09:08:21.967Z,98247.78
2022-11-05T09:10:49.034Z,98255.19
2022-11-05T09:13:19.387Z,98250.59
2022-11-05T09:15:49.801Z,98255.78
2022-11-05T09:18:16.553Z,98257.41
2022-11-05T09:20:42.564Z,98255.28
2022-11-05T09:23:09.925Z,98255.63
2022-11-05T09:25:36.107Z,98255.81
2022-11-05T09:28:06.895Z,98261.22
2022-11-05T09:30:32.574Z,98260.31
2022-11-05T09:32:58.278Z,98259.38
2022-11-05T09:35:23.957Z,98259.56
2022-11-05T09:37:49.633Z,98255.25
2022-11-05T09:40:17.272Z,98269.88
2022-11-05T09:42:49.475Z,98267.28
2022-11-05T09:45:21.295Z,98272.47
2022-11-05T09:47:51.433Z,98271.06
2022-11-05T09:50:25.550Z,98270.41
2022-11-05T09:52:51.225Z,98274.72
2022-11-05T09:55:27.140Z,98277.66
2022-11-05T09:58:00.427Z,98283.19
2022-11-05T10:00:27.936Z,98280.75
2022-11-05T10:02:56.698Z,98277.75
2022-11-05T10:05:24.526Z,98281.19
2022-11-05T10:07:55.779Z,98285.66
2022-11-05T10:10:39.423Z,98291.59
2022-11-05T10:13:34.646Z,98283.59
2022-11-05T10:16:25.477Z,98286.69
2022-11-05T10:19:01.027Z,98282.06
2022-11-05T10:21:51.302Z,98285.16
2022-11-05T10:24:18.033Z,98293.06
2022-11-05T10:26:49.748Z,98296.88
2022-11-05T10:29:25.301Z,98302.22
2022-11-05T10:31:53.844Z,98298.63
2022-11-05T10:34:21.680Z,98300.88
2022-11-05T10:36:47.698Z,98305.41
2022-11-05T10:39:18.641Z,98302.47
2022-11-05T10:41:56.814Z,98302.50
2022-11-05T10:44:36.941Z,98308.56
2022-11-05T10:47:31.836Z,98307.97
2022-11-05T10:49:58.872Z,98310.25
2022-11-05T10:52:30.323Z,98309.47
2022-11-05T10:54:59.743Z,98310.75
2022-11-05T10:57:34.926Z,98309.53
2022-11-05T11:00:15.991Z,98305.06
2022-11-05T11:02:44.989Z,98301.25
2022-11-05T11:05:19.454Z,98301.56
2022-11-05T11:07:57.708Z,98305.75
2022-11-05T11:10:25.377Z,98306.47
2022-11-05T11:12:52.235Z,98308.38
2022-11-05T11:15:32.207Z,98306.25
2022-11-05T11:17:58.421Z,98310.06
2022-11-05T11:20:30.650Z,98311.81
2022-11-05T11:23:12.276Z,98305.78
2022-11-05T11:25:52.374Z,98300.78
2022-11-05T11:28:30.503Z,98309.88
2022-11-05T11:31:11.353Z,98310.25
2022-11-05T11:33:39.717Z,98313.91
2022-11-05T11:36:06.496Z,98310.09
2022-11-05T11:38:35.734Z,98313.53
2022-11-05T11:41:20.191Z,98314.16
2022-11-05T11:43:46.081Z,98315.91
2022-11-05T11:46:18.999Z,98318.31
2022-11-05T11:48:47.829Z,98313.94
2022-11-05T11:51:31.473Z,98318.03
2022-11-05T11:53:58.967Z,98319.88
2022-11-05T11:56:24.895Z,98317.75
2022-11-05T11:58:53.118Z,98324.59
2022-11-05T12:01:30.628Z,98324.81
2022-11-05T12:04:10.186Z,98324.38
2022-11-05T12:06:42.649Z,98324.75
2022-11-05T12:09:21.984Z,98324.94
2022-11-05T12:12:09.323Z,98329.25
2022-11-05T12:14:54.531Z,98319.97
2022-11-05T12:17:32.016Z,98325.44
2022-11-05T12:19:57.659Z,98321.75
2022-11-05T12:22:41.697Z,98320.38
2022-11-05T12:25:28.527Z,98324.09
2022-11-05T12:28:19.114Z,98319.34
2022-11-05T12:31:07.752Z,98323.03
2022-11-05T12:34:06.840Z,98321.38
2022-11-05T12:36:41.853Z,98320.38
2022-11-05T12:39:21.802Z,98323.44
2022-11-05T12:42:37.858Z,98327.38
2022-11-05T12:45:34.961Z,98336.63
2022-11-05T12:48:30.315Z,98333.00
2022-11-05T12:51:12.582Z,98326.09
2022-11-05T12:53:54.217Z,98337.56
2022-11-05T12:56:42.310Z,98338.59
2022-11-05T12:59:18.939Z,98333.47
2022-11-05T13:01:52.173Z,98338.75
2022-11-05T13:04:42.968Z,98346.06
2022-11-05T13:07:12.921Z,98344.56
2022-11-05T13:09:53.753Z,98340.00
2022-11-05T13:12:22.389Z,98341.56
2022-11-05T13:14:55.226Z,98343.59
2022-11-05T13:17:27.485Z,98348.50
2022-11-05T13:20:17.539Z,98346.81
2022-11-05T13:23:12.028Z,98343.09
2022-11-05T13:25:47.962Z,98343.31
2022-11-05T13:28:34.801Z,98350.47
2022-11-05T13:31:04.972Z,98351.03
2022-11-05T13:33:41.987Z,98351.94
2022-11-05T13:36:29.225Z,98353.84
2022-11-05T13:39:17.635Z,98354.69
2022-11-05T13:41:57.820Z,98349.41
2022-11-05T13:44:59.407Z,98348.81
2022-11-05T13:48:03.031Z,98356.53
2022-11-05T13:50:31.632Z,98352.16
2022-11-05T13:53:26.076Z,98354.91
2022-11-05T13:56:03.938Z,98351.31
2022-11-05T13:58:49.069Z,98352.47
2022-11-05T14:01:35.661Z,98354.81
2022-11-05T14:04:02.537Z,98360.69
2022-11-05T14:06:32.773Z,98358.59
2022-11-05T14:09:03.823Z,98358.59
2022-11-05T14:11:36.359Z,98363.50
2022-11-05T14:14:06.006Z,98366.63
2022-11-05T14:17:08.756Z,98364.25
2022-11-05T14:19:48.265Z,98367.66
2022-11-05T14:22:36.102Z,98373.34
2022-11-05T14:25:21.847Z,98369.31
2022-11-05T14:27:50.138Z,98377.00
2022-11-05T14:30:42.642Z,98371.66
2022-11-05T14:33:15.788Z,98370.69
2022-11-05T14:35:41.690Z,98372.75
2022-11-05T14:38:20.835Z,98371.09
2022-11-05T14:40:48.011Z,98378.50
2022-11-05T14:43:14.038Z,98384.22
2022-11-05T14:45:52.856Z,98376.84
2022-11-05T14:48:27.262Z,98375.38
2022-11-05T14:50:54.227Z,98376.19
2022-11-05T14:53:38.212Z,98384.38
2022-11-05T14:56:08.018Z,98391.16
2022-11-05T14:58:39.176Z,98391.16
2022-11-05T15:01:13.798Z,98401.41
2022-11-05T15:03:45.519Z,98391.94
2022-11-05T15:06:20.964Z,98400.75
2022-11-05T15:08:56.170Z,98398.13
2022-11-05T15:11:38.898Z,98404.91
2022-11-05T15:14:36.053Z,98407.19
2022-11-05T15:17:16.474Z,98405.16
2022-11-05T15:19:43.749Z,98412.13
2022-11-05T15:22:32.365Z,98413.97
2022-11-05T15:24:58.197Z,98407.44
2022-11-05T15:27:43.117Z,98414.22
2022-11-05T15:30:18.302Z,98415.03
2022-11-05T15:32:44.170Z,98422.03
2022-11-05T15:35:28.208Z,98429.81
2022-11-05T15:38:01.813Z,98423.44
2022-11-05T15:40:31.989Z,98429.59
2022-11-05T15:43:18.759Z,98430.63
2022-11-05T15:46:01.793Z,98426.09
2022-11-05T15:48:27.598Z,98437.22
2022-11-05T15:50:53.394Z,98433.13
2022-11-05T15:53:56.016Z,98444.44
2022-11-05T15:56:27.082Z,98437.63
2022-11-05T15:58:59.690Z,98434.16
2022-11-05T16:01:32.639Z,98432.34
2022-11-05T16:04:09.925Z,98430.72
2022-11-05T16:06:38.524Z,98432.38
2022-11-05T16:09:04.747Z,98437.50
2022-11-05T16:11:30.784Z,98444.28
2022-11-05T16:14:18.537Z,98446.78
2022-11-05T16:16:45.347Z,98449.84
2022-11-05T16:19:40.280Z,98451.09
2022-11-05T16:22:07.195Z,98450.47
2022-11-05T16:24:32.881Z,98446.78
2022-11-05T16:27:03.499Z,98449.25
2022-11-05T16:29:37.896Z,98447.19
2022-11-05T16:32:13.784Z,98455.19
2022-11-05T16:34:42.067Z,98461.13
2022-11-05T16:37:12.852Z,98466.25
2022-11-05T16:39:38.549Z,98470.34
2022-11-05T16:42:25.298Z,98476.06
2022-11-05T16:44:52.999Z,98477.72
2022-11-05T16:47:19.446Z,98483.06
2022-11-05T16:49:47.228Z,98481.00
2022-11-05T16:52:13.261Z,98482.63
2022-11-05T16:54:39.421Z,98481.59
2022-11-05T16:57:11.435Z,98478.13
2022-11-05T16:59:37.172Z,98490.44
2022-11-05T17:02:03.384Z,98493.50
2022-11-05T17:04:29.142Z,98497.19
2022-11-05T17:06:54.851Z,98489.84
2022-11-05T17:09:20.520Z,98501.13
2022-11-05T17:11:46.218Z,98500.31
2022-11-05T17:14:12.911Z,98504.38
2022-11-05T17:16:39.995Z,98504.56
2022-11-05T17:19:08.491Z,98505.81
2022-11-05T17:21:35.843Z,98520.16
2022-11-05T17:24:01.562Z,98524.47
2022-11-05T17:26:27.276Z,98522.81
2022-11-05T17:28:52.946Z,98527.94
2022-11-05T17:31:18.943Z,98515.03
2022-11-05T17:33:44.775Z,98526.13
2022-11-05T17:36:13.938Z,98520.78
2022-11-05T17:38:39.934Z,98522.41
2022-11-05T17:41:15.950Z,98517.72
2022-11-05T17:43:42.187Z,98522.84
2022-11-05T17:46:10.528Z,98516.47
2022-11-05T17:48:37.422Z,98524.06
2022-11-05T17:51:03.770Z,98521.59
2022-11-05T17:53:29.663Z,98530.84
2022-11-05T17:55:55.711Z,98530.03
2022-11-05T17:58:21.433Z,98526.34
2022-11-05T18:00:47.973Z,98523.84
2022-11-05T18:03:14.490Z,98531.22
2022-11-05T18:05:41.163Z,98538.63
2022-11-05T18:08:08.502Z,98547.22
2022-11-05T18:10:38.894Z,98542.13
2022-11-05T18:13:05.027Z,98530.81
2022-11-05T18:15:30.767Z,98543.94
2022-11-05T18:17:56.504Z,98531.63
2022-11-05T18:20:22.284Z,98537.75
2022-11-05T18:22:49.850Z,98538.75
2022-11-05T18:25:16.266Z,98541.00
2022-11-05T18:27:42.685Z,98540.19
2022-11-05T18:30:09.712Z,98537.47
2022-11-05T18:32:35.416Z,98545.66
2022-11-05T18:35:01.246Z,98547.28
2022-11-05T18:37:27.094Z,98552.59
2022-11-05T18:39:53.079Z,98553.00
2022-11-05T18:42:20.174Z,98550.53
2022-11-05T18:44:46.015Z,98553.22
2022-11-05T18:47:12.247Z,98548.69
2022-11-05T18:49:38.004Z,98553.00
2022-11-05T18:52:03.978Z,98546.88
2022-11-05T18:54:29.789Z,98552.75
2022-11-05T18:56:55.852Z,98550.50
2022-11-05T18:59:36.306Z,98552.53
2022-11-05T19:02:04.008Z,98562.56
2022-11-05T19:04:29.962Z,98554.34
2022-11-05T19:06:58.896Z,98557.41
2022-11-05T19:09:27.358Z,98555.53
2022-11-05T19:11:56.336Z,98551.41
2022-11-05T19:14:22.951Z,98555.25
2022-11-05T19:16:48.669Z,98549.44
2022-11-05T19:19:14.553Z,98553.28
2022-11-05T19:21:40.296Z,98555.09
2022-11-05T19:24:06.086Z,98564.63
2022-11-05T19:26:32.023Z,98558.88
2022-11-05T19:28:59.924Z,98558.47
2022-11-05T19:31:26.055Z,98569.47
2022-11-05T19:33:52.528Z,98562.53
2022-11-05T19:36:19.992Z,98561.69
2022-11-05T19:38:48.579Z,98557.41
2022-11-05T19:41:15.099Z,98554.09
2022-11-05T19:43:41.490Z,98561.34
2022-11-05T19:46:09.278Z,98560.31
2022-11-05T19:48:35.662Z,98561.31
2022-11-05T19:51:06.171Z,98567.84
2022-11-05T19:53:34.757Z,98567.00
2022-11-05T19:56:07.737Z,98572.72
2022-11-05T19:58:34.141Z,98569.19
2022-11-05T20:01:00.264Z,98570.75
2022-11-05T20:03:26.348Z,98573.59
2022-11-05T20:05:52.061Z,98583.78
2022-11-05T20:08:17.788Z,98597.44
2022-11-05T20:10:43.503Z,98596.63
2022-11-05T20:13:09.415Z,98595.81
2022-11-05T20:15:38.915Z,98599.91
2022-11-05T20:18:05.948Z,98597.06
2022-11-05T20:20:31.901Z,98603.63
2022-11-05T20:22:57.754Z,98601.22
2022-11-05T20:25:23.557Z,98606.19
2022-11-05T20:27:49.458Z,98600.69
2022-11-05T20:30:15.184Z,98610.09
2022-11-05T20:32:41.015Z,98610.72
2022-11-05T20:35:07.101Z,98606.06
2022-11-05T20:37:32.836Z,98605.84
2022-11-05T20:39:58.541Z,98616.28
2022-11-05T20:42:24.255Z,98614.25
2022-11-05T20:44:50.227Z,98610.41
2022-11-05T20:47:15.925Z,98614.69
2022-11-05T20:49:42.331Z,98621.66
2022-11-05T20:52:08.014Z,98617.16
2022-11-05T20:54:34.011Z,98607.34
2022-11-05T20:56:59.772Z,98605.91
2022-11-05T20:59:25.462Z,98607.94
2022-11-05T21:01:52.331Z,98608.75
2022-11-05T21:04:18.145Z,98611.22
2022-11-05T21:06:43.879Z,98618.19
2022-11-05T21:09:09.569Z,98625.97
2022-11-05T21:11:54.154Z,98623.13
2022-11-05T21:14:19.851Z,98629.91
2022-11-05T21:16:45.513Z,98624.22
2022-11-05T21:19:11.320Z,98628.97
2022-11-05T21:21:40.884Z,98625.94
2022-11-05T21:24:07.297Z,98625.94
2022-11-05T21:26:33.025Z,98625.31
2022-11-05T21:28:58.706Z,98636.31
2022-11-05T21:31:24.388Z,98624.03
2022-11-05T21:33:55.019Z,98626.50
2022-11-05T21:36:21.102Z,98626.50
2022-11-05T21:38:46.820Z,98628.16
2022-11-05T21:41:13.036Z,98627.34
2022-11-05T21:43:39.790Z,98626.22
2022-11-05T21:46:05.595Z,98624.41
2022-11-05T21:48:31.726Z,98627.25
2022-11-05T21:51:16.076Z,98625.56
2022-11-05T21:54:00.515Z,98618.19
2022-11-05T21:56:45.403Z,98628.19
2022-11-05T21:59:32.673Z,98620.16
2022-11-05T22:02:02.055Z,98610.69
2022-11-05T22:04:33.230Z,98620.41
2022-11-05T22:06:59.378Z,98613.31
2022-11-05T22:09:25.521Z,98611.97
2022-11-05T22:11:51.973Z,98607.16
2022-11-05T22:14:17.756Z,98612.13
2022-11-05T22:16:43.456Z,98616.91
2022-11-05T22:19:10.101Z,98618.19
2022-11-05T22:21:35.934Z,98613.00
2022-11-05T22:24:01.800Z,98610.63
2022-11-05T22:26:27.552Z,98613.19
2022-11-05T22:28:54.319Z,98618.59
2022-11-05T22:31:20.931Z,98618.50
2022-11-05T22:33:47.588Z,98629.66
2022-11-05T22:36:13.830Z,98619.75
2022-11-05T22:38:40.115Z,98616.19
2022-11-05T22:41:11.442Z,98624.06
2022-11-05T22:43:37.998Z,98617.63
2022-11-05T22:46:09.590Z,98621.66
2022-11-05T22:48:38.146Z,98627.31
2022-11-05T22:51:09.535Z,98625.38
2022-11-05T22:53:35.839Z,98619.00
2022-11-05T22:56:03.298Z,98625.81
2022-11-05T22:58:29.272Z,98621.03
2022-11-05T23:00:55.119Z,98610.81
2022-11-05T23:03:21.029Z,98602.75
2022-11-05T23:05:55.027Z,98607.97
2022-11-05T23:08:39.072Z,98612.59
2022-11-05T23:11:32.500Z,98607.47
2022-11-05T23:13:58.578Z,98601.69
2022-11-05T23:16:43.006Z,98606.00
2022-11-05T23:19:27.546Z,98604.72
2022-11-05T23:22:11.683Z,98602.59
2022-11-05T23:24:37.927Z,98610.91
2022-11-05T23:27:03.610Z,98600.50
2022-11-05T23:29:29.364Z,98600.66
2022-11-05T23:32:14.067Z,98604.31
2022-11-05T23:34:39.762Z,98601.16
2022-11-05T23:37:24.570Z,98599.34
2022-11-05T23:39:50.416Z,98597.03
2022-11-05T23:42:35.415Z,98589.63
2022-11-05T23:45:19.684Z,98591.63
2022-11-05T23:48:04.175Z,98596.44
2022-11-05T23:50:35.440Z,98595.34
2022-11-05T23:53:04.162Z,98595.84
2022-11-05T23:55:29.988Z,98597.38
2022-11-05T23:57:55.739Z,98598.91
